Time;durP1;ratioP1;P1;durP2;ratioP2;P2;SDS_P1;SDS_P2;PMS_P1;PMS_P2;Temp;Humidity;BMP_temperature;BMP_pressure;BME280_temperature;BME280_humidity;BME280_pressure;Samples;Min_cycle;Max_cycle;Signal;HPM_P1;HPM_P2
2022/03/24 00:00:09;;;;;;;0.60;0.60;;;;;;;8.35;40.00;101552.66;104030;1280;108861;-74
2022/03/24 00:03:00;;;;;;;0.60;0.60;;;;;;;8.40;40.18;101555.14;103768;1279;137853;-74
2022/03/24 00:05:28;;;;;;;0.60;0.60;;;;;;;8.39;40.02;101555.84;104146;1279;95253;-75
2022/03/24 00:07:57;;;;;;;0.70;0.70;;;;;;;8.35;40.23;101551.23;104020;1279;137573;-75
2022/03/24 00:10:25;;;;;;;0.60;0.60;;;;;;;8.25;40.05;101555.98;104157;1279;98326;-74
2022/03/24 00:12:55;;;;;;;0.60;0.60;;;;;;;8.15;40.38;101554.56;104002;1280;107770;-75
2022/03/24 00:15:23;;;;;;;0.60;0.60;;;;;;;8.09;40.26;101551.00;104055;1279;137683;-74
2022/03/24 00:17:51;;;;;;;0.70;0.70;;;;;;;8.11;40.43;101552.60;104187;1279;95252;-76
2022/03/24 00:20:19;;;;;;;0.70;0.70;;;;;;;8.10;40.29;101552.24;103988;1280;137677;-75
2022/03/24 00:22:47;;;;;;;0.90;0.90;;;;;;;8.05;40.55;101551.52;103963;1279;97796;-76
2022/03/24 00:25:15;;;;;;;0.60;0.60;;;;;;;8.02;40.50;101550.81;103884;1280;138282;-74
2022/03/24 00:27:43;;;;;;;0.70;0.70;;;;;;;8.04;40.44;101555.77;104112;1279;95742;-74
2022/03/24 00:30:12;;;;;;;0.70;0.70;;;;;;;8.02;40.40;101552.41;104079;1280;97122;-75
2022/03/24 00:32:40;;;;;;;0.80;0.80;;;;;;;7.99;40.53;101549.92;103935;1280;138250;-75
2022/03/24 00:35:10;;;;;;;0.70;0.70;;;;;;;7.91;40.35;101552.38;104161;1280;98168;-74
2022/03/24 00:37:39;;;;;;;0.70;0.70;;;;;;;7.86;40.47;101546.70;104310;1279;137710;-75
2022/03/24 00:40:08;;;;;;;0.80;0.80;;;;;;;7.84;40.39;101548.27;104098;1279;95721;-75
2022/03/24 00:42:37;;;;;;;0.70;0.70;;;;;;;7.84;40.54;101547.91;104593;1280;95902;-75
2022/03/24 00:45:09;;;;;;;0.80;0.80;;;;;;;7.85;40.54;101548.64;104073;1279;137804;-75
2022/03/24 00:47:42;;;;;;;0.80;0.80;;;;;;;7.83;40.53;101550.74;104082;1281;97467;-76
2022/03/24 00:50:12;;;;;;;0.70;0.70;;;;;;;7.84;40.67;101547.39;103875;1280;137591;-75
2022/03/24 00:52:41;;;;;;;0.70;0.70;;;;;;;7.78;40.59;101546.84;104155;1281;95761;-75
2022/03/24 00:55:12;;;;;;;0.70;0.70;;;;;;;7.78;40.97;101549.85;103967;1279;138205;-76
2022/03/24 00:57:42;;;;;;;0.70;0.70;;;;;;;7.76;40.89;101547.36;103916;1281;109240;-73
2022/03/24 01:00:15;;;;;;;0.70;0.70;;;;;;;7.74;40.85;101540.64;103999;1280;98173;-75
2022/03/24 01:02:45;;;;;;;0.90;0.90;;;;;;;7.73;41.29;101546.64;103798;1281;137898;-74
2022/03/24 01:05:16;;;;;;;0.70;0.70;;;;;;;7.59;41.58;101547.64;103955;1279;96203;-73
2022/03/24 01:07:45;;;;;;;0.80;0.80;;;;;;;7.57;41.45;101547.64;103898;1280;138073;-75
2022/03/24 01:10:16;;;;;;;0.70;0.70;;;;;;;7.54;41.55;101549.40;103991;1281;108749;-75
2022/03/24 01:12:46;;;;;;;0.70;0.70;;;;;;;7.48;41.64;101545.30;103957;1279;98460;-75
2022/03/24 01:15:17;;;;;;;0.80;0.80;;;;;;;7.36;42.04;101542.59;104111;1280;137734;-74
2022/03/24 01:17:47;;;;;;;0.80;0.80;;;;;;;7.30;42.29;101544.67;104234;1280;96281;-74
2022/03/24 01:20:16;;;;;;;0.80;0.80;;;;;;;7.28;42.27;101542.20;103916;1279;138374;-73
2022/03/24 01:22:44;;;;;;;0.80;0.80;;;;;;;7.28;42.21;101544.14;103928;1280;108742;-75
2022/03/24 01:25:16;;;;;;;0.80;0.80;;;;;;;7.23;42.54;101542.88;103749;1279;228230;-75
2022/03/24 01:27:45;;;;;;;0.80;0.80;;;;;;;7.08;42.77;101538.02;104073;1280;107788;-73
2022/03/24 01:30:13;;;;;;;0.80;0.80;;;;;;;7.01;42.72;101542.38;103893;1280;95346;-75
2022/03/24 01:32:42;;;;;;;0.80;0.80;;;;;;;7.01;42.77;101542.56;104135;1280;137661;-75
2022/03/24 01:35:11;;;;;;;0.80;0.80;;;;;;;7.01;42.91;101548.20;104119;1279;109371;-75
2022/03/24 01:37:40;;;;;;;0.90;0.90;;;;;;;6.94;43.24;101547.27;103915;1279;138332;-75
2022/03/24 01:40:10;;;;;;;0.80;0.80;;;;;;;6.87;43.23;101547.92;104147;1279;107930;-75
2022/03/24 01:42:39;;;;;;;0.80;0.80;;;;;;;6.85;43.40;101548.97;104126;1279;95268;-75
2022/03/24 01:45:08;;;;;;;0.90;0.90;;;;;;;6.82;43.57;101546.13;103946;1281;138246;-75
2022/03/24 01:47:37;;;;;;;0.90;0.90;;;;;;;6.78;43.45;101543.44;104190;1279;107524;-75
2022/03/24 01:50:06;;;;;;;0.80;0.80;;;;;;;6.72;43.64;101539.52;103877;1280;138481;-75
2022/03/24 01:52:35;;;;;;;0.90;0.90;;;;;;;6.63;43.88;101541.20;103979;1281;108838;-75
2022/03/24 01:55:06;;;;;;;0.80;0.80;;;;;;;6.55;44.02;101538.84;103770;1282;138593;-74
2022/03/24 01:57:36;;;;;;;0.80;0.80;;;;;;;6.44;44.19;101538.40;104062;1281;95212;-75
2022/03/24 02:00:06;;;;;;;0.80;0.80;;;;;;;6.41;44.29;101542.44;104177;1281;108759;-75
2022/03/24 02:02:44;;;;;;;1.00;1.00;;;;;;;6.43;44.27;101540.85;104002;1280;138253;-75
2022/03/24 02:05:12;;;;;;;0.90;0.90;;;;;;;6.36;44.52;101537.45;103882;1280;107844;-75
2022/03/24 02:07:42;;;;;;;0.90;0.90;;;;;;;6.23;44.92;101536.79;103939;1279;138182;-75
2022/03/24 02:10:11;;;;;;;1.00;1.00;;;;;;;6.16;45.13;101538.30;103975;1281;95537;-76
2022/03/24 02:12:42;;;;;;;0.90;0.90;;;;;;;6.12;45.29;101543.55;104127;1280;108632;-76
2022/03/24 02:15:11;;;;;;;1.00;1.00;;;;;;;6.14;45.40;101547.45;104021;1279;138185;-75
2022/03/24 02:17:41;;;;;;;1.00;1.00;;;;;;;6.15;45.33;101545.02;104184;1279;107883;-75
2022/03/24 02:20:10;;;;;;;1.00;1.00;;;;;;;6.13;45.40;101544.09;104072;1279;137785;-73
2022/03/24 02:22:38;;;;;;;1.00;1.00;;;;;;;6.11;45.43;101546.90;104122;1280;95149;-75
2022/03/24 02:25:09;;;;;;;1.00;1.00;;;;;;;6.09;45.69;101546.86;104020;1279;137754;-76
2022/03/24 02:27:39;;;;;;;1.00;1.00;;;;;;;6.04;45.67;101547.71;104452;1279;98687;-76
2022/03/24 02:30:09;;;;;;;1.00;1.00;;;;;;;5.96;45.80;101547.77;104033;1280;108360;-75
2022/03/24 02:32:37;;;;;;;1.00;1.00;;;;;;;5.93;45.83;101546.13;103791;1280;138353;-76
2022/03/24 02:35:06;;;;;;;1.10;1.10;;;;;;;5.88;45.90;101543.26;104055;1280;95248;-73
2022/03/24 02:37:35;;;;;;;1.10;1.10;;;;;;;5.79;46.00;101547.55;104039;1279;138537;-75
2022/03/24 02:40:04;;;;;;;1.00;1.00;;;;;;;5.77;46.19;101547.71;103823;1281;98028;-75
2022/03/24 02:42:33;;;;;;;1.00;1.00;;;;;;;5.70;46.35;101548.69;104191;1279;107634;-75
2022/03/24 02:45:05;;;;;;;1.10;1.10;;;;;;;5.59;46.83;101546.78;103915;1279;137776;-75
2022/03/24 02:47:33;;;;;;;1.00;1.00;;;;;;;5.52;47.00;101549.00;104052;1281;95202;-75
2022/03/24 02:50:02;;;;;;;1.10;1.10;;;;;;;5.53;46.94;101549.17;104453;1279;137722;-75
2022/03/24 02:52:30;;;;;;;1.10;1.10;;;;;;;5.54;46.97;101551.65;104112;1281;98840;-76
2022/03/24 02:54:58;;;;;;;1.20;1.20;;;;;;;5.50;46.97;101550.36;104162;1280;107695;-75
2022/03/24 02:57:27;;;;;;;1.20;1.20;;;;;;;5.43;47.16;101547.98;104011;1280;137599;-75
2022/03/24 02:59:55;;;;;;;1.20;1.20;;;;;;;5.36;47.40;101552.66;103749;1281;95333;-75
2022/03/24 03:02:23;;;;;;;1.20;1.20;;;;;;;5.30;47.94;101550.46;103859;1280;138359;-73
2022/03/24 03:04:53;;;;;;;1.10;1.10;;;;;;;5.23;47.99;101554.23;104186;1281;98191;-74
2022/03/24 03:07:22;;;;;;;1.20;1.20;;;;;;;5.21;48.06;101555.77;103892;1279;137712;-72
2022/03/24 03:09:50;;;;;;;1.10;1.10;;;;;;;5.09;48.59;101557.02;104103;1279;95724;-76
2022/03/24 03:12:19;;;;;;;1.30;1.30;;;;;;;5.02;48.69;101561.50;104127;1281;95548;-75
2022/03/24 03:14:47;;;;;;;1.10;1.10;;;;;;;5.03;48.89;101563.45;103879;1280;137556;-76
2022/03/24 03:17:16;;;;;;;1.20;1.20;;;;;;;5.01;48.71;101565.54;103935;1281;98628;-75
2022/03/24 03:19:45;;;;;;;1.20;1.20;;;;;;;5.01;48.82;101568.35;103863;1280;137778;-75
2022/03/24 03:22:15;;;;;;;1.10;1.10;;;;;;;4.95;48.94;101567.02;104576;1280;96710;-75
2022/03/24 03:24:44;;;;;;;1.20;1.20;;;;;;;4.93;48.93;101565.58;104591;1280;95231;-75
2022/03/24 03:27:13;;;;;;;1.10;1.10;;;;;;;4.90;49.15;101568.16;104081;1280;137810;-75
2022/03/24 03:29:42;;;;;;;1.40;1.40;;;;;;;4.81;49.49;101569.96;104143;1280;98441;-75
2022/03/24 03:32:11;;;;;;;1.30;1.30;;;;;;;4.77;49.58;101571.13;103991;1280;138072;-75
2022/03/24 03:34:41;;;;;;;1.20;1.20;;;;;;;4.73;49.80;101571.77;104180;1281;95222;-76
2022/03/24 03:37:11;;;;;;;1.40;1.40;;;;;;;4.72;49.83;101577.20;104061;1280;137988;-75
2022/03/24 03:39:40;;;;;;;1.20;1.20;;;;;;;4.74;49.97;101582.87;104020;1281;108758;-75
2022/03/24 03:42:09;;;;;;;1.10;1.10;;;;;;;4.72;49.88;101580.37;104158;1280;99119;-74
2022/03/24 03:44:37;;;;;;;1.20;1.20;;;;;;;4.65;50.21;101580.42;103842;1281;137725;-74
2022/03/24 03:47:06;;;;;;;1.20;1.20;;;;;;;4.61;50.22;101582.64;104142;1280;95282;-76
2022/03/24 03:49:36;;;;;;;1.30;1.30;;;;;;;4.59;50.40;101585.78;104047;1280;138218;-75
2022/03/24 03:52:25;;;;;;;1.30;1.30;;;;;;;4.62;50.34;101584.95;104044;1281;109496;-72
2022/03/24 03:54:53;;;;;;;1.20;1.20;;;;;;;4.60;50.58;101583.68;104040;1281;98350;-75
2022/03/24 03:57:21;;;;;;;1.40;1.40;;;;;;;4.50;50.90;101584.74;103986;1281;138990;-76
2022/03/24 03:59:49;;;;;;;1.30;1.30;;;;;;;4.42;51.18;101582.84;104010;1281;95329;-74
2022/03/24 04:02:18;;;;;;;1.30;1.30;;;;;;;4.38;51.02;101584.00;104013;1281;138467;-73
2022/03/24 04:04:47;;;;;;;1.20;1.20;;;;;;;4.39;51.27;101584.89;104099;1280;108063;-75
2022/03/24 04:07:15;;;;;;;1.20;1.20;;;;;;;4.34;51.39;101585.35;104035;1280;138690;-75
2022/03/24 04:09:43;;;;;;;1.20;1.20;;;;;;;4.36;51.42;101588.17;104010;1281;108219;-76
2022/03/24 04:12:11;;;;;;;1.30;1.30;;;;;;;4.33;51.58;101584.27;104077;1281;95838;-75
2022/03/24 04:14:39;;;;;;;1.20;1.20;;;;;;;4.32;51.47;101587.41;104066;1280;137653;-76
2022/03/24 04:17:08;;;;;;;1.30;1.30;;;;;;;4.26;51.72;101585.55;104137;1280;108426;-75
2022/03/24 04:19:36;;;;;;;1.40;1.40;;;;;;;4.21;51.80;101585.78;104047;1280;138735;-73
2022/03/24 04:22:05;;;;;;;1.20;1.20;;;;;;;4.22;52.04;101592.14;104117;1280;108702;-75
2022/03/24 04:24:33;;;;;;;1.20;1.20;;;;;;;4.22;52.13;101590.20;104096;1281;95322;-75
2022/03/24 04:27:01;;;;;;;1.20;1.20;;;;;;;4.23;52.16;101596.20;103863;1281;137743;-75
2022/03/24 04:29:29;;;;;;;1.20;1.20;;;;;;;4.18;52.32;101593.31;103987;1283;108704;-75
2022/03/24 04:31:57;;;;;;;1.20;1.20;;;;;;;4.20;51.97;101597.54;103846;1279;138566;-75
2022/03/24 04:34:25;;;;;;;1.30;1.30;;;;;;;4.21;51.94;101597.22;104085;1281;107777;-76
2022/03/24 04:36:55;;;;;;;1.30;1.30;;;;;;;4.22;52.14;101595.14;104054;1281;95218;-75
2022/03/24 04:39:22;;;;;;;1.20;1.20;;;;;;;4.28;52.16;101597.71;104137;1281;138425;-73
2022/03/24 04:41:50;;;;;;;1.30;1.30;;;;;;;4.34;51.97;101596.07;103945;1281;108962;-75
2022/03/24 04:44:18;;;;;;;1.20;1.20;;;;;;;4.34;51.91;101599.58;104067;1280;137732;-75
2022/03/24 04:46:46;;;;;;;1.20;1.20;;;;;;;4.34;52.23;101599.93;103980;1281;107763;-75
2022/03/24 04:49:14;;;;;;;1.20;1.20;;;;;;;4.28;52.52;101597.53;103835;1281;137884;-75
2022/03/24 04:51:42;;;;;;;1.30;1.30;;;;;;;4.21;52.57;101595.27;104165;1281;96038;-75
2022/03/24 04:54:10;;;;;;;1.30;1.30;;;;;;;4.17;52.68;101593.63;104140;1280;108840;-75
2022/03/24 04:56:38;;;;;;;1.10;1.10;;;;;;;4.14;52.94;101593.94;104064;1281;138959;-76
2022/03/24 04:59:06;;;;;;;1.10;1.10;;;;;;;4.15;52.91;101594.30;104103;1280;108066;-75
2022/03/24 05:01:35;;;;;;;1.30;1.30;;;;;;;4.16;52.97;101594.13;103999;1280;138212;-76
2022/03/24 05:04:04;;;;;;;1.20;1.20;;;;;;;4.18;53.08;101595.23;104106;1280;95245;-75
2022/03/24 05:06:32;;;;;;;1.30;1.30;;;;;;;4.18;52.94;101595.59;104022;1281;108746;-75
2022/03/24 05:09:00;;;;;;;1.20;1.20;;;;;;;4.19;52.83;101595.27;104020;1281;137999;-76
2022/03/24 05:11:28;;;;;;;1.20;1.20;;;;;;;4.27;52.74;101595.23;104113;1281;107793;-77
2022/03/24 05:13:56;;;;;;;1.20;1.20;;;;;;;4.36;52.76;101594.52;103928;1281;138217;-76
2022/03/24 05:16:25;;;;;;;1.20;1.20;;;;;;;4.39;52.55;101590.16;104059;1281;95801;-76
2022/03/24 05:18:53;;;;;;;1.20;1.20;;;;;;;4.47;52.42;101593.85;104023;1280;106575;-76
2022/03/24 05:21:22;;;;;;;1.30;1.30;;;;;;;4.59;52.18;101597.38;103917;1281;137583;-75
2022/03/24 05:23:51;;;;;;;1.20;1.20;;;;;;;4.62;52.11;101596.91;104180;1281;107864;-75
2022/03/24 05:26:23;;;;;;;1.20;1.20;;;;;;;4.67;52.24;101599.83;104016;1281;137883;-75
2022/03/24 05:28:54;;;;;;;1.20;1.20;;;;;;;4.75;52.02;101598.53;104181;1281;95611;-76
2022/03/24 05:31:22;;;;;;;1.30;1.30;;;;;;;4.80;51.99;101600.20;103992;1281;138145;-75
2022/03/24 05:33:51;;;;;;;1.10;1.10;;;;;;;4.89;51.95;101598.59;103914;1281;98789;-75
2022/03/24 05:36:19;;;;;;;1.20;1.20;;;;;;;4.96;51.91;101596.77;104295;1280;107767;-76
2022/03/24 05:38:47;;;;;;;1.10;1.10;;;;;;;4.96;52.02;101601.00;104019;1281;137940;-75
2022/03/24 05:41:15;;;;;;;1.10;1.10;;;;;;;4.98;51.95;101601.92;104063;1281;95746;-76
2022/03/24 05:44:02;;;;;;;1.10;1.10;;;;;;;5.00;52.08;101599.48;103880;1281;138110;-75
2022/03/24 05:46:40;;;;;;;1.10;1.10;;;;;;;4.93;52.35;101602.89;104090;1280;98347;-75
2022/03/24 05:49:09;;;;;;;1.10;1.10;;;;;;;4.94;52.44;101601.86;104270;1281;138319;-75
2022/03/24 05:52:00;;;;;;;1.00;1.00;;;;;;;5.06;52.25;101605.20;104093;1280;95553;-73
2022/03/24 05:54:28;;;;;;;1.10;1.10;;;;;;;5.08;52.26;101605.23;103985;1281;95655;-75
2022/03/24 05:56:56;;;;;;;1.00;1.00;;;;;;;5.11;52.32;101607.41;103769;1281;137729;-76
2022/03/24 05:59:26;;;;;;;1.10;1.10;;;;;;;5.19;52.15;101608.92;103941;1281;98381;-77
2022/03/24 06:01:54;;;;;;;1.00;1.00;;;;;;;5.21;52.23;101610.18;103690;1281;138337;-75
2022/03/24 06:04:22;;;;;;;1.10;1.10;;;;;;;5.18;52.39;101610.15;103919;1281;95158;-76
2022/03/24 06:06:54;;;;;;;1.10;1.10;;;;;;;5.26;52.32;101612.55;104220;1281;95107;-76
2022/03/24 06:09:22;;;;;;;1.10;1.10;;;;;;;5.30;52.24;101610.86;103956;1280;138324;-75
2022/03/24 06:11:51;;;;;;;1.00;1.00;;;;;;;5.37;52.04;101614.65;103939;1281;98455;-75
2022/03/24 06:14:20;;;;;;;0.90;0.90;;;;;;;5.40;52.12;101614.00;103976;1280;138479;-76
2022/03/24 06:16:48;;;;;;;1.00;1.00;;;;;;;5.43;52.23;101617.90;104146;1280;95705;-75
2022/03/24 06:19:16;;;;;;;1.00;1.00;;;;;;;5.46;52.14;101613.55;103780;1281;137894;-76
2022/03/24 06:21:45;;;;;;;0.90;0.90;;;;;;;5.47;52.36;101612.33;104147;1280;108947;-75
2022/03/24 06:24:13;;;;;;;1.00;1.00;;;;;;;5.49;52.21;101615.71;104141;1279;97730;-76
2022/03/24 06:26:41;;;;;;;1.00;1.00;;;;;;;5.49;52.38;101616.95;103842;1283;137737;-75
2022/03/24 06:29:11;;;;;;;1.00;1.00;;;;;;;5.49;52.43;101619.95;104065;1281;95277;-75
2022/03/24 06:31:44;;;;;;;1.00;1.00;;;;;;;5.58;52.33;101622.17;104027;1281;137916;-76
2022/03/24 06:34:12;;;;;;;1.00;1.00;;;;;;;5.57;52.39;101621.81;103814;1281;108658;-73
2022/03/24 06:36:41;;;;;;;1.10;1.10;;;;;;;5.58;52.46;101621.30;104104;1280;96933;-76
2022/03/24 06:39:09;;;;;;;1.00;1.00;;;;;;;5.68;52.16;101621.78;103921;1281;138078;-76
2022/03/24 06:41:37;;;;;;;1.00;1.00;;;;;;;5.83;52.02;101624.62;103971;1281;95298;-75
2022/03/24 06:44:06;;;;;;;0.90;0.90;;;;;;;5.92;51.77;101624.91;103786;1280;137608;-75
2022/03/24 06:46:36;;;;;;;1.00;1.00;;;;;;;5.93;51.75;101625.27;104056;1281;109758;-76
2022/03/24 06:49:05;;;;;;;1.00;1.00;;;;;;;5.99;51.71;101624.68;103769;1281;138096;-74
2022/03/24 06:51:34;;;;;;;1.00;1.00;;;;;;;6.00;51.48;101628.73;104210;1280;107847;-75
2022/03/24 06:54:03;;;;;;;0.90;0.90;;;;;;;6.05;51.50;101628.63;103872;1281;95670;-75
2022/03/24 06:56:31;;;;;;;1.00;1.00;;;;;;;6.08;51.66;101629.73;103892;1279;138256;-76
2022/03/24 06:58:59;;;;;;;1.00;1.00;;;;;;;6.09;51.35;101630.80;103768;1284;108768;-73
2022/03/24 07:01:27;;;;;;;1.00;1.00;;;;;;;6.07;51.78;101629.19;103835;1281;137985;-75
2022/03/24 07:03:55;;;;;;;1.00;1.00;;;;;;;6.16;51.63;101631.23;104157;1280;107604;-75
2022/03/24 07:06:23;;;;;;;1.10;1.10;;;;;;;6.28;51.34;101633.31;104154;1279;96153;-75
2022/03/24 07:08:51;;;;;;;0.90;0.90;;;;;;;6.33;51.32;101633.55;103875;1283;137794;-75
2022/03/24 07:11:19;;;;;;;0.90;0.90;;;;;;;6.38;50.97;101638.54;104043;1281;109490;-75
2022/03/24 07:13:47;;;;;;;0.80;0.80;;;;;;;6.48;50.92;101638.83;103825;1280;137917;-75
2022/03/24 07:16:15;;;;;;;0.90;0.90;;;;;;;6.51;51.20;101641.68;104117;1280;107884;-75
2022/03/24 07:18:43;;;;;;;0.90;0.90;;;;;;;6.47;50.79;101639.52;104156;1279;96580;-75
2022/03/24 07:21:11;;;;;;;0.90;0.90;;;;;;;6.48;50.85;101641.64;103808;1279;138294;-73
2022/03/24 07:23:39;;;;;;;0.90;0.90;;;;;;;6.56;50.80;101647.02;104094;1281;108514;-77
2022/03/24 07:26:09;;;;;;;0.90;0.90;;;;;;;6.68;50.46;101646.77;104031;1279;138114;-75
2022/03/24 07:28:37;;;;;;;0.80;0.80;;;;;;;6.83;50.17;101641.64;104044;1279;107830;-75
2022/03/24 07:31:11;;;;;;;0.90;0.90;;;;;;;6.94;49.93;101647.55;103963;1279;138386;-76
2022/03/24 07:33:39;;;;;;;0.80;0.80;;;;;;;7.05;49.77;101641.30;104251;1281;95239;-76
2022/03/24 07:36:07;;;;;;;0.90;0.90;;;;;;;7.08;49.35;101637.77;103852;1281;108029;-76
2022/03/24 07:38:36;;;;;;;0.80;0.80;;;;;;;7.17;49.36;101640.33;103900;1280;138034;-75
2022/03/24 07:41:05;;;;;;;1.00;1.00;;;;;;;7.28;48.94;101638.48;103879;1281;107941;-75
2022/03/24 07:43:32;;;;;;;0.80;0.80;;;;;;;7.41;48.56;101638.38;104000;1280;137921;-74
2022/03/24 07:46:01;;;;;;;0.80;0.80;;;;;;;7.57;48.18;101636.54;104071;1280;95236;-76
2022/03/24 07:48:30;;;;;;;0.80;0.80;;;;;;;7.61;47.76;101630.91;104068;1280;108766;-73
2022/03/24 07:51:00;;;;;;;0.80;0.80;;;;;;;7.70;48.11;101627.42;103877;1281;137936;-76
2022/03/24 07:53:35;;;;;;;0.70;0.70;;;;;;;7.79;47.51;101632.06;104124;1279;107753;-75
2022/03/24 07:56:03;;;;;;;0.70;0.70;;;;;;;7.83;47.48;101629.08;103997;1279;137719;-76
2022/03/24 07:58:31;;;;;;;0.60;0.60;;;;;;;7.91;47.37;101625.76;104166;1279;95202;-75
2022/03/24 08:00:59;;;;;;;0.60;0.60;;;;;;;8.06;46.98;101627.23;104035;1281;108516;-75
2022/03/24 08:03:28;;;;;;;0.70;0.70;;;;;;;8.19;47.01;101626.57;103825;1280;138053;-75
2022/03/24 08:05:56;;;;;;;0.60;0.60;;;;;;;8.24;46.85;101625.70;103971;1280;107388;-75
2022/03/24 08:08:26;;;;;;;0.60;0.60;;;;;;;8.33;46.54;101627.51;104051;1279;137727;-75
2022/03/24 08:10:54;;;;;;;0.70;0.70;;;;;;;8.41;46.32;101624.70;104093;1280;96254;-75
2022/03/24 08:13:23;;;;;;;0.60;0.60;;;;;;;8.56;46.33;101630.59;103994;1279;137725;-75
2022/03/24 08:15:51;;;;;;;0.60;0.60;;;;;;;8.77;45.84;101630.63;104104;1280;98251;-75
2022/03/24 08:18:19;;;;;;;0.60;0.60;;;;;;;8.93;45.62;101626.38;104177;1279;107623;-75
2022/03/24 08:20:48;;;;;;;0.60;0.60;;;;;;;9.10;44.98;101622.14;104030;1279;138191;-74
2022/03/24 08:23:17;;;;;;;0.60;0.60;;;;;;;9.18;44.68;101623.38;104017;1281;95162;-75
2022/03/24 08:25:46;;;;;;;0.60;0.60;;;;;;;9.38;44.44;101621.20;103862;1280;137904;-76
2022/03/24 08:28:14;;;;;;;0.50;0.50;;;;;;;9.58;43.62;101619.92;103826;1282;97657;-75
2022/03/24 08:30:44;;;;;;;0.50;0.50;;;;;;;9.75;43.36;101622.71;103788;1280;107658;-75
2022/03/24 08:33:13;;;;;;;0.60;0.60;;;;;;;9.85;42.91;101622.88;104057;1281;137792;-76
2022/03/24 08:35:45;;;;;;;0.60;0.60;;;;;;;9.91;42.98;101620.55;104044;1280;95841;-75
2022/03/24 08:38:13;;;;;;;0.60;0.60;;;;;;;10.04;42.32;101621.55;104155;1279;138119;-76
2022/03/24 08:40:41;;;;;;;0.50;0.50;;;;;;;10.23;41.91;101619.52;104030;1280;98422;-73
2022/03/24 08:43:09;;;;;;;0.60;0.60;;;;;;;10.32;41.64;101615.91;104184;1280;106748;-75
2022/03/24 08:45:37;;;;;;;0.50;0.40;;;;;;;10.37;41.27;101619.64;103794;1279;137933;-75
2022/03/24 08:48:06;;;;;;;0.40;0.40;;;;;;;10.48;41.22;101619.75;104055;1280;96988;-75
2022/03/24 08:50:35;;;;;;;0.50;0.50;;;;;;;10.56;40.61;101622.02;103969;1279;137868;-73
2022/03/24 08:53:04;;;;;;;0.50;0.40;;;;;;;10.60;40.31;101623.40;104051;1281;98396;-74
2022/03/24 08:55:33;;;;;;;0.50;0.50;;;;;;;10.67;40.17;101619.10;104064;1280;138621;-75
2022/03/24 08:58:02;;;;;;;0.40;0.40;;;;;;;10.74;39.87;101617.09;103963;1281;95580;-75
2022/03/24 09:00:30;;;;;;;0.50;0.40;;;;;;;11.01;39.63;101615.45;104208;1279;95177;-73
2022/03/24 09:02:58;;;;;;;0.50;0.50;;;;;;;11.47;38.68;101607.38;104092;1279;138332;-75
2022/03/24 09:05:26;;;;;;;0.50;0.40;;;;;;;12.02;37.76;101605.31;104202;1279;98672;-75
2022/03/24 09:07:54;;;;;;;0.50;0.50;;;;;;;12.80;35.86;101602.97;103846;1281;138672;-76
2022/03/24 09:10:22;;;;;;;0.40;0.40;;;;;;;13.78;34.25;101608.32;104042;1279;95259;-75
2022/03/24 09:12:50;;;;;;;0.40;0.30;;;;;;;15.74;31.23;101600.40;103901;1282;95165;-75
2022/03/24 09:15:19;;;;;;;0.40;0.20;;;;;;;17.64;28.42;101593.79;104056;1279;138445;-77
2022/03/24 09:17:48;;;;;;;0.40;0.20;;;;;;;19.19;26.70;101594.30;104175;1278;98827;-76
2022/03/24 09:20:18;;;;;;;0.40;0.10;;;;;;;20.88;25.10;101589.55;103972;1280;138644;-76
2022/03/24 09:22:48;;;;;;;0.40;0.10;;;;;;;22.29;23.16;101591.17;104156;1279;95620;-77
2022/03/24 09:25:18;;;;;;;0.40;0.10;;;;;;;23.43;21.60;101585.04;104132;1280;95256;-76
2022/03/24 09:27:48;;;;;;;0.40;0.10;;;;;;;24.38;21.00;101585.24;103942;1281;138286;-76
2022/03/24 09:30:18;;;;;;;0.40;0.10;;;;;;;25.28;19.67;101585.94;103846;1279;98355;-76
2022/03/24 09:32:47;;;;;;;0.40;0.00;;;;;;;25.99;18.52;101584.83;103677;1279;138317;-77
2022/03/24 09:35:16;;;;;;;0.40;0.10;;;;;;;26.11;18.21;101584.15;104048;1280;96656;-75
2022/03/24 09:37:44;;;;;;;0.40;0.00;;;;;;;26.31;17.90;101588.11;103870;1281;137676;-76
2022/03/24 09:40:14;;;;;;;0.40;0.00;;;;;;;26.38;17.91;101582.86;104121;1280;109102;-76
2022/03/24 09:42:42;;;;;;;0.40;0.00;;;;;;;26.27;17.63;101584.40;104134;1282;98416;-75
2022/03/24 09:45:11;;;;;;;0.40;0.00;;;;;;;26.39;17.73;101581.75;103795;1281;137927;-76
2022/03/24 09:47:41;;;;;;;0.40;0.00;;;;;;;26.43;17.61;101582.34;104161;1279;95233;-76
2022/03/24 09:50:11;;;;;;;0.40;0.00;;;;;;;26.42;17.29;101582.21;104528;1279;137990;-77
2022/03/24 09:52:39;;;;;;;0.40;0.00;;;;;;;26.81;17.39;101582.44;103927;1280;109540;-76
2022/03/24 09:55:08;;;;;;;0.40;0.00;;;;;;;27.19;16.92;101580.60;103961;1280;98928;-76
2022/03/24 09:57:36;;;;;;;0.40;0.10;;;;;;;27.65;16.85;101569.50;104002;1281;138205;-76
2022/03/24 10:00:25;;;;;;;0.40;0.00;;;;;;;28.33;15.79;101574.40;104053;1279;95408;-76
2022/03/24 10:03:16;;;;;;;0.40;0.00;;;;;;;28.99;15.21;101570.94;103954;1280;138362;-77
2022/03/24 10:06:00;;;;;;;0.40;0.00;;;;;;;29.32;14.74;101567.71;103969;1280;108556;-76
2022/03/24 10:08:29;;;;;;;0.40;0.00;;;;;;;29.83;14.80;101566.20;103880;1279;138313;-76
2022/03/24 10:11:06;;;;;;;0.40;0.00;;;;;;;30.40;14.01;101568.73;103862;1280;107777;-77
2022/03/24 10:13:55;;;;;;;0.40;0.00;;;;;;;31.10;13.70;101563.37;103805;1280;138243;-76
2022/03/24 10:16:40;;;;;;;0.40;0.00;;;;;;;31.58;13.07;101554.96;104088;1280;95137;-76
2022/03/24 10:19:10;;;;;;;0.40;0.00;;;;;;;31.57;12.58;101559.77;104128;1279;108643;-75
2022/03/24 10:21:41;;;;;;;0.40;0.00;;;;;;;31.82;12.36;101554.48;104129;1279;138702;-76
2022/03/24 10:24:14;;;;;;;0.40;0.00;;;;;;;31.97;12.52;101550.05;104390;1279;108076;-77
2022/03/24 10:26:50;;;;;;;0.40;0.00;;;;;;;32.14;12.47;101549.64;104020;1279;138641;-77
2022/03/24 10:29:22;;;;;;;0.40;0.00;;;;;;;32.22;12.04;101550.83;103898;1279;95322;-76
2022/03/24 10:31:52;;;;;;;0.40;0.00;;;;;;;32.84;12.10;101545.55;104038;1279;138133;-75
2022/03/24 10:34:37;;;;;;;0.40;0.00;;;;;;;33.17;11.41;101543.77;104153;1280;98311;-76
2022/03/24 10:37:07;;;;;;;0.40;0.00;;;;;;;33.41;11.03;101543.33;104372;1279;108595;-75
2022/03/24 10:39:37;;;;;;;0.40;0.00;;;;;;;33.47;10.57;101547.27;104008;1279;138271;-75
2022/03/24 10:42:18;;;;;;;0.40;0.00;;;;;;;33.44;10.49;101547.77;103950;1279;95858;-75
2022/03/24 10:45:11;;;;;;;0.40;0.00;;;;;;;33.50;10.66;101535.34;103829;1280;138106;-76
2022/03/24 10:47:51;;;;;;;0.40;0.00;;;;;;;33.68;10.72;101535.89;103968;1279;98398;-77
2022/03/24 10:50:45;;;;;;;0.40;0.00;;;;;;;33.38;10.06;101536.12;104042;1279;137876;-76
2022/03/24 10:53:16;;;;;;;0.40;0.00;;;;;;;32.37;10.74;101534.95;104181;1279;95640;-75
2022/03/24 10:55:47;;;;;;;0.40;0.00;;;;;;;29.99;12.21;101540.90;103989;1280;138171;-76
2022/03/24 10:58:25;;;;;;;0.40;0.00;;;;;;;28.22;13.38;101534.99;104205;1280;108456;-76
2022/03/24 11:00:57;;;;;;;0.40;0.00;;;;;;;26.66;14.66;101538.16;104300;1279;98291;-76
2022/03/24 11:03:25;;;;;;;0.40;0.00;;;;;;;25.38;15.70;101536.14;104231;1280;138356;-76
2022/03/24 11:06:11;;;;;;;0.40;0.00;;;;;;;24.21;16.65;101535.71;103940;1280;95278;-77
2022/03/24 11:08:41;;;;;;;0.40;0.00;;;;;;;23.10;17.69;101537.73;104082;1279;137998;-76
2022/03/24 11:11:14;;;;;;;0.40;0.00;;;;;;;21.93;18.71;101534.00;104046;1279;108663;-76
2022/03/24 11:13:52;;;;;;;0.40;0.00;;;;;;;20.97;19.71;101534.04;104123;1279;138581;-76
2022/03/24 11:16:23;;;;;;;0.40;0.00;;;;;;;20.30;20.79;101534.89;104403;1279;108376;-73
2022/03/24 11:18:53;;;;;;;0.40;0.10;;;;;;;19.85;21.21;101526.02;104449;1280;96124;-76
2022/03/24 11:21:31;;;;;;;0.40;0.10;;;;;;;19.52;21.84;101519.25;104074;1279;138283;-77
2022/03/24 11:24:01;;;;;;;0.40;0.10;;;;;;;19.02;22.56;101515.48;104267;1279;108553;-75
2022/03/24 11:26:29;;;;;;;0.40;0.10;;;;;;;18.54;23.02;101522.20;103928;1279;138042;-75
2022/03/24 11:28:58;;;;;;;0.40;0.10;;;;;;;18.18;23.10;101518.63;104051;1279;107762;-76